Time,TemperatureF,DewpointF,PressureIn,WindDirection,WindDirectionDegrees,WindSpeedMPH,WindSpeedGustMPH,Humidity,HourlyPrecipIn,Conditions,Clouds,dailyrainin,SoftwareType,DateUTC
2013-03-12 00:00:00,69.4,62.1,29.96,SSE,165,0.0,0.0,78,0.00,,,0.00,VWS V14.01,2013-03-12 04:00:00,
2013-03-12 00:05:00,69.4,62.1,29.96,SE,129,0.0,0.0,78,0.00,,,0.00,VWS V14.01,2013-03-12 04:05:00,
2013-03-12 00:10:00,69.5,62.2,29.95,SE,129,0.0,0.0,78,0.00,,,0.00,VWS V14.01,2013-03-12 04:10:00,
2013-03-12 00:15:00,69.5,62.2,29.96,SW,219,0.0,3.3,78,0.00,,,0.00,VWS V14.01,2013-03-12 04:15:00,
2013-03-12 00:20:00,69.4,62.1,29.96,SW,219,0.0,0.0,78,0.00,,,0.00,VWS V14.01,2013-03-12 04:20:00,
2013-03-12 00:25:00,69.4,62.1,29.95,SW,219,0.0,0.0,78,0.00,,,0.00,VWS V14.01,2013-03-12 04:25:00,
2013-03-12 00:30:00,69.5,62.2,29.95,SW,219,0.0,0.0,78,0.00,,,0.00,VWS V14.01,2013-03-12 04:30:00,
2013-03-12 00:35:00,69.4,62.1,29.94,SSE,152,3.2,4.2,78,0.00,,,0.00,VWS V14.01,2013-03-12 04:35:00,
2013-03-12 00:40:00,69.3,62.1,29.94,South,180,0.0,0.0,78,0.00,,,0.00,VWS V14.01,2013-03-12 04:40:00,
2013-03-12 00:45:00,69.4,62.2,29.94,South,180,0.0,0.0,78,0.00,,,0.00,VWS V14.01,2013-03-12 04:45:00,
2013-03-12 00:50:00,69.4,62.2,29.94,South,180,0.0,0.0,78,0.00,,,0.00,VWS V14.01,2013-03-12 04:50:00,
2013-03-12 00:55:00,69.4,62.2,29.95,ESE,105,3.0,3.0,78,0.00,,,0.00,VWS V14.01,2013-03-12 04:55:00,
2013-03-12 01:00:00,69.4,62.2,29.95,ESE,105,0.0,0.0,78,0.00,,,0.00,VWS V14.01,2013-03-12 05:00:00,
2013-03-12 01:05:00,69.4,62.2,29.95,ESE,105,0.0,0.0,78,0.00,,,0.00,VWS V14.01,2013-03-12 05:05:00,
2013-03-12 01:10:00,69.5,62.3,29.95,ESE,105,0.0,0.0,78,0.00,,,0.00,VWS V14.01,2013-03-12 05:10:00,
2013-03-12 01:15:00,69.3,62.2,29.95,ESE,105,0.0,0.0,78,0.00,,,0.00,VWS V14.01,2013-03-12 05:15:00,
2013-03-12 01:20:00,69.5,62.4,29.94,ESE,105,0.0,0.0,78,0.00,,,0.00,VWS V14.01,2013-03-12 05:20:00,
2013-03-12 01:25:00,69.3,62.3,29.94,ESE,105,0.0,0.0,78,0.00,,,0.00,VWS V14.01,2013-03-12 05:25:00,
2013-03-12 01:30:00,69.5,62.5,29.94,ESE,105,0.0,0.0,78,0.00,,,0.00,VWS V14.01,2013-03-12 05:30:00,
2013-03-12 01:35:00,69.4,62.4,29.94,ESE,105,0.0,0.0,78,0.00,,,0.00,VWS V14.01,2013-03-12 05:35:00,
2013-03-12 01:40:00,69.3,62.3,29.95,ESE,105,0.0,0.0,78,0.00,,,0.00,VWS V14.01,2013-03-12 05:40:00,
2013-03-12 01:44:00,69.1,62.1,29.95,ESE,105,0.0,0.0,78,0.00,,,0.00,VWS V14.01,2013-03-12 05:44:00,
2013-03-12 01:45:00,69.0,62.0,29.95,ESE,105,0.0,0.0,78,0.00,,,0.00,VWS V14.01,2013-03-12 05:45:00,
2013-03-12 01:49:00,69.2,62.2,29.95,ESE,105,0.0,0.0,78,0.00,,,0.00,VWS V14.01,2013-03-12 05:49:00,
2013-03-12 01:50:00,69.2,62.2,29.94,ESE,105,0.0,0.0,78,0.00,,,0.00,VWS V14.01,2013-03-12 05:50:00,
2013-03-12 01:54:00,69.3,62.3,29.94,ESE,105,0.0,0.0,78,0.00,,,0.00,VWS V14.01,2013-03-12 05:54:00,
2013-03-12 01:55:00,69.2,62.2,29.94,ESE,105,0.0,0.0,78,0.00,,,0.00,VWS V14.01,2013-03-12 05:55:00,
2013-03-12 01:59:00,69.4,62.4,29.94,ESE,105,0.0,0.0,78,0.00,,,0.00,VWS V14.01,2013-03-12 05:59:00,
2013-03-12 02:00:00,69.3,62.3,29.94,ESE,105,0.0,0.0,78,0.00,,,0.00,VWS V14.01,2013-03-12 06:00:00,
2013-03-12 02:04:00,69.1,62.2,29.93,South,186,3.1,5.6,79,0.00,,,0.00,VWS V14.01,2013-03-12 06:04:00,
2013-03-12 02:05:00,69.0,62.1,29.93,South,186,0.0,5.6,79,0.00,,,0.00,VWS V14.01,2013-03-12 06:05:00,
2013-03-12 02:09:00,69.3,62.4,29.93,SSE,149,0.0,0.0,79,0.00,,,0.00,VWS V14.01,2013-03-12 06:09:00,
2013-03-12 02:10:00,69.3,62.4,29.93,SSE,149,0.0,0.0,79,0.00,,,0.00,VWS V14.01,2013-03-12 06:10:00,
2013-03-12 02:14:00,69.2,62.3,29.93,SSE,149,0.0,0.0,79,0.00,,,0.00,VWS V14.01,2013-03-12 06:14:00,
2013-03-12 02:15:00,69.2,62.3,29.93,SSE,149,0.0,0.0,79,0.00,,,0.00,VWS V14.01,2013-03-12 06:15:00,
2013-03-12 02:19:00,68.9,62.1,29.93,SSE,149,0.0,0.0,79,0.00,,,0.00,VWS V14.01,2013-03-12 06:19:00,
2013-03-12 02:20:00,69.2,62.4,29.93,SSE,149,0.0,0.0,79,0.00,,,0.00,VWS V14.01,2013-03-12 06:20:00,
2013-03-12 02:24:00,69.0,62.2,29.94,SSE,149,0.0,0.0,79,0.00,,,0.00,VWS V14.01,2013-03-12 06:24:00,
2013-03-12 02:25:00,69.2,62.3,29.94,SSE,149,0.0,0.0,79,0.00,,,0.00,VWS V14.01,2013-03-12 06:25:00,
2013-03-12 02:29:00,69.1,62.3,29.94,South,169,0.0,4.3,79,0.00,,,0.00,VWS V14.01,2013-03-12 06:29:00,
2013-03-12 02:30:00,69.2,62.4,29.94,South,169,0.0,0.0,79,0.00,,,0.00,VWS V14.01,2013-03-12 06:30:00,
2013-03-12 02:34:00,69.0,62.3,29.93,SSE,165,0.0,0.0,79,0.00,,,0.00,VWS V14.01,2013-03-12 06:34:00,
2013-03-12 02:35:00,69.2,62.5,29.93,SE,146,4.2,4.8,79,0.00,,,0.00,VWS V14.01,2013-03-12 06:35:00,
2013-03-12 02:39:00,69.1,62.4,29.93,SSW,194,4.1,4.1,79,0.00,,,0.00,VWS V14.01,2013-03-12 06:39:00,
2013-03-12 02:40:00,69.2,62.5,29.93,SW,215,5.0,5.0,79,0.00,,,0.00,VWS V14.01,2013-03-12 06:40:00,
2013-03-12 02:44:00,69.2,62.5,29.93,SW,231,0.0,0.0,79,0.00,,,0.00,VWS V14.01,2013-03-12 06:44:00,
2013-03-12 02:45:00,69.2,62.5,29.93,SW,231,0.0,0.0,79,0.00,,,0.00,VWS V14.01,2013-03-12 06:45:00,
2013-03-12 02:49:00,69.3,62.6,29.93,SW,231,0.0,0.0,79,0.00,,,0.00,VWS V14.01,2013-03-12 06:49:00,
2013-03-12 02:50:00,69.3,62.6,29.93,SW,231,0.0,0.0,79,0.00,,,0.00,VWS V14.01,2013-03-12 06:50:00,
2013-03-12 02:54:00,69.4,62.8,29.95,SW,231,0.0,0.0,79,0.00,,,0.00,VWS V14.01,2013-03-12 06:54:00,
2013-03-12 02:55:00,69.3,62.7,29.94,SW,231,0.0,0.0,79,0.00,,,0.00,VWS V14.01,2013-03-12 06:55:00,
2013-03-12 02:59:00,69.2,62.6,29.95,SW,231,0.0,0.0,80,0.00,,,0.00,VWS V14.01,2013-03-12 06:59:00,
2013-03-12 03:00:00,69.1,62.5,29.94,SW,231,0.0,0.0,80,0.00,,,0.00,VWS V14.01,2013-03-12 07:00:00,
2013-03-12 03:04:00,69.2,62.7,29.95,SW,231,0.0,0.0,80,0.00,,,0.00,VWS V14.01,2013-03-12 07:04:00,
2013-03-12 03:05:00,69.1,62.6,29.95,SW,231,0.0,0.0,80,0.00,,,0.00,VWS V14.01,2013-03-12 07:05:00,
2013-03-12 03:09:00,68.9,62.5,29.94,SW,231,0.0,0.0,80,0.00,,,0.00,VWS V14.01,2013-03-12 07:09:00,
2013-03-12 03:10:00,68.9,62.5,29.94,SW,231,0.0,0.0,80,0.00,,,0.00,VWS V14.01,2013-03-12 07:10:00,
2013-03-12 03:14:00,68.9,62.5,29.93,SW,231,0.0,0.0,80,0.00,,,0.00,VWS V14.01,2013-03-12 07:14:00,
2013-03-12 03:15:00,68.8,62.5,29.93,SW,231,0.0,0.0,80,0.00,,,0.00,VWS V14.01,2013-03-12 07:15:00,
2013-03-12 03:19:00,68.9,62.6,29.92,SW,231,0.0,0.0,80,0.00,,,0.00,VWS V14.01,2013-03-12 07:19:00,
2013-03-12 03:20:00,68.8,62.6,29.92,SW,231,0.0,0.0,81,0.00,,,0.00,VWS V14.01,2013-03-12 07:20:00,
2013-03-12 03:24:00,68.9,62.7,29.92,SW,231,0.0,0.0,81,0.00,,,0.00,VWS V14.01,2013-03-12 07:24:00,
2013-03-12 03:25:00,68.4,62.2,29.92,SW,231,0.0,0.0,81,0.00,,,0.00,VWS V14.01,2013-03-12 07:25:00,
2013-03-12 03:29:00,68.6,62.5,29.90,SW,231,0.0,0.0,81,0.00,,,0.00,VWS V14.01,2013-03-12 07:29:00,
2013-03-12 03:30:00,68.4,62.3,29.90,SW,231,0.0,0.0,81,0.00,,,0.00,VWS V14.01,2013-03-12 07:30:00,
2013-03-12 03:34:00,68.6,62.6,29.90,SSE,160,3.4,4.8,81,0.00,,,0.00,VWS V14.01,2013-03-12 07:34:00,
2013-03-12 03:35:00,68.8,62.8,29.90,SSE,160,0.0,4.8,81,0.00,,,0.00,VWS V14.01,2013-03-12 07:35:00,
2013-03-12 03:39:00,68.7,62.7,29.91,SSE,160,0.0,0.0,81,0.00,,,0.00,VWS V14.01,2013-03-12 07:39:00,
2013-03-12 03:40:00,68.7,62.7,29.91,ESE,114,2.1,2.1,81,0.00,,,0.00,VWS V14.01,2013-03-12 07:40:00,
2013-03-12 03:44:00,68.5,62.5,29.91,South,190,0.0,0.0,81,0.00,,,0.00,VWS V14.01,2013-03-12 07:44:00,
2013-03-12 03:45:00,68.5,62.5,29.91,South,190,0.0,0.0,81,0.00,,,0.00,VWS V14.01,2013-03-12 07:45:00,
2013-03-12 03:49:00,68.8,62.8,29.92,South,188,0.0,0.0,81,0.00,,,0.00,VWS V14.01,2013-03-12 07:49:00,
2013-03-12 03:50:00,68.4,62.4,29.91,South,188,0.0,0.0,81,0.00,,,0.00,VWS V14.01,2013-03-12 07:50:00,
2013-03-12 03:54:00,68.6,63.0,29.90,SE,124,4.9,4.9,82,0.00,,,0.00,VWS V14.01,2013-03-12 07:54:00,
2013-03-12 03:55:00,68.5,62.9,29.90,SSE,163,0.0,4.9,82,0.00,,,0.00,VWS V14.01,2013-03-12 07:55:00,
2013-03-12 03:59:00,68.4,63.0,29.90,SSW,200,0.0,0.0,83,0.00,,,0.00,VWS V14.01,2013-03-12 07:59:00,
2013-03-12 04:00:00,68.4,63.0,29.90,SSW,200,0.0,0.0,83,0.00,,,0.00,VWS V14.01,2013-03-12 08:00:00,
2013-03-12 04:04:00,68.4,63.0,29.90,SSW,200,0.0,0.0,83,0.00,,,0.00,VWS V14.01,2013-03-12 08:04:00,
2013-03-12 04:05:00,68.3,62.9,29.90,SSW,200,0.0,0.0,83,0.00,,,0.00,VWS V14.01,2013-03-12 08:05:00,
2013-03-12 04:09:00,68.4,63.2,29.90,South,186,0.0,2.1,84,0.00,,,0.00,VWS V14.01,2013-03-12 08:09:00,
2013-03-12 04:10:00,68.1,63.0,29.90,South,186,0.0,2.1,84,0.00,,,0.00,VWS V14.01,2013-03-12 08:10:00,
2013-03-12 04:14:00,68.0,62.9,29.91,SE,131,0.0,0.0,84,0.00,,,0.00,VWS V14.01,2013-03-12 08:14:00,
2013-03-12 04:15:00,68.2,63.1,29.91,SE,131,0.0,0.0,84,0.00,,,0.00,VWS V14.01,2013-03-12 08:15:00,
2013-03-12 04:19:00,67.9,62.8,29.91,SE,131,0.0,0.0,84,0.00,,,0.00,VWS V14.01,2013-03-12 08:19:00,
2013-03-12 04:20:00,67.9,62.8,29.91,SE,131,0.0,0.0,84,0.00,,,0.00,VWS V14.01,2013-03-12 08:20:00,
2013-03-12 04:24:00,68.0,63.0,29.91,SE,131,0.0,0.0,84,0.00,,,0.00,VWS V14.01,2013-03-12 08:24:00,
2013-03-12 04:25:00,68.1,63.1,29.91,SE,131,0.0,0.0,84,0.00,,,0.00,VWS V14.01,2013-03-12 08:25:00,
2013-03-12 04:29:00,68.1,63.1,29.91,SE,131,0.0,0.0,84,0.00,,,0.00,VWS V14.01,2013-03-12 08:29:00,
2013-03-12 04:30:00,67.7,62.6,29.91,SE,131,0.0,0.0,84,0.00,,,0.00,VWS V14.01,2013-03-12 08:30:00,
2013-03-12 04:34:00,67.7,62.7,29.91,SE,131,0.0,0.0,84,0.00,,,0.00,VWS V14.01,2013-03-12 08:34:00,
2013-03-12 04:35:00,67.9,62.9,29.91,SE,131,0.0,0.0,84,0.00,,,0.00,VWS V14.01,2013-03-12 08:35:00,
2013-03-12 04:39:00,67.8,62.8,29.90,SE,131,0.0,0.0,84,0.00,,,0.00,VWS V14.01,2013-03-12 08:39:00,
2013-03-12 04:40:00,67.8,62.8,29.90,SE,131,0.0,0.0,84,0.00,,,0.00,VWS V14.01,2013-03-12 08:40:00,
2013-03-12 04:44:00,67.8,62.8,29.89,SE,131,0.0,0.0,84,0.00,,,0.00,VWS V14.01,2013-03-12 08:44:00,
2013-03-12 04:45:00,67.4,62.4,29.90,SE,131,0.0,0.0,84,0.00,,,0.00,VWS V14.01,2013-03-12 08:45:00,
2013-03-12 04:49:00,67.7,62.7,29.90,SE,131,0.0,0.0,84,0.00,,,0.00,VWS V14.01,2013-03-12 08:49:00,
2013-03-12 04:50:00,67.8,62.9,29.90,SE,131,0.0,0.0,84,0.00,,,0.00,VWS V14.01,2013-03-12 08:50:00,
2013-03-12 04:54:00,67.7,62.7,29.89,SE,131,0.0,0.0,84,0.00,,,0.00,VWS V14.01,2013-03-12 08:54:00,
2013-03-12 04:55:00,67.8,62.8,29.89,SE,131,0.0,0.0,84,0.00,,,0.00,VWS V14.01,2013-03-12 08:55:00,
2013-03-12 04:59:00,68.0,63.0,29.89,SE,131,0.0,0.0,84,0.00,,,0.00,VWS V14.01,2013-03-12 08:59:00,
2013-03-12 05:00:00,67.8,62.9,29.90,SE,131,0.0,0.0,84,0.00,,,0.00,VWS V14.01,2013-03-12 09:00:00,
2013-03-12 05:04:00,67.5,62.6,29.89,SE,131,0.0,0.0,84,0.00,,,0.00,VWS V14.01,2013-03-12 09:04:00,
2013-03-12 05:05:00,67.7,62.8,29.90,SE,131,0.0,0.0,84,0.00,,,0.00,VWS V14.01,2013-03-12 09:05:00,
2013-03-12 05:09:00,67.8,62.9,29.90,SE,131,0.0,0.0,84,0.00,,,0.00,VWS V14.01,2013-03-12 09:09:00,
2013-03-12 05:10:00,67.7,62.8,29.90,SE,131,0.0,0.0,84,0.00,,,0.00,VWS V14.01,2013-03-12 09:10:00,
2013-03-12 05:14:00,67.3,62.4,29.89,SSW,207,3.0,5.1,84,0.00,,,0.00,VWS V14.01,2013-03-12 09:14:00,
2013-03-12 05:15:00,67.3,62.4,29.90,SSE,159,0.0,4.8,84,0.00,,,0.00,VWS V14.01,2013-03-12 09:15:00,
2013-03-12 05:19:00,67.5,62.6,29.89,SSE,159,0.0,0.0,84,0.00,,,0.00,VWS V14.01,2013-03-12 09:19:00,
2013-03-12 05:20:00,67.9,63.0,29.90,SSE,159,0.0,0.0,84,0.00,,,0.00,VWS V14.01,2013-03-12 09:20:00,
2013-03-12 05:24:00,67.2,62.3,29.90,SSE,159,0.0,0.0,84,0.00,,,0.00,VWS V14.01,2013-03-12 09:24:00,
2013-03-12 05:25:00,67.8,62.9,29.90,SSE,159,0.0,0.0,84,0.00,,,0.00,VWS V14.01,2013-03-12 09:25:00,
2013-03-12 05:29:00,67.4,62.5,29.90,SSE,159,0.0,0.0,84,0.00,,,0.00,VWS V14.01,2013-03-12 09:29:00,
2013-03-12 05:30:00,67.7,62.8,29.90,SSE,159,0.0,0.0,84,0.00,,,0.00,VWS V14.01,2013-03-12 09:30:00,
2013-03-12 05:34:00,67.5,62.6,29.89,SSE,159,0.0,0.0,84,0.00,,,0.00,VWS V14.01,2013-03-12 09:34:00,
2013-03-12 05:35:00,67.8,62.9,29.89,SSE,159,0.0,0.0,84,0.00,,,0.00,VWS V14.01,2013-03-12 09:35:00,
2013-03-12 05:39:00,67.7,62.8,29.89,SSE,159,0.0,0.0,84,0.00,,,0.00,VWS V14.01,2013-03-12 09:39:00,
2013-03-12 05:40:00,67.5,62.6,29.89,SSE,159,0.0,0.0,84,0.00,,,0.00,VWS V14.01,2013-03-12 09:40:00,
2013-03-12 05:44:00,67.2,62.3,29.89,SSE,159,0.0,0.0,84,0.00,,,0.00,VWS V14.01,2013-03-12 09:44:00,
2013-03-12 05:45:00,67.4,62.5,29.89,SSE,159,0.0,0.0,84,0.00,,,0.00,VWS V14.01,2013-03-12 09:45:00,
2013-03-12 05:49:00,67.6,62.7,29.88,SSE,159,0.0,0.0,84,0.00,,,0.00,VWS V14.01,2013-03-12 09:49:00,
2013-03-12 05:54:00,67.3,62.4,29.89,SSE,159,0.0,0.0,84,0.00,,,0.00,VWS V14.01,2013-03-12 09:54:00,
2013-03-12 05:55:00,67.8,62.9,29.89,SSE,159,0.0,0.0,84,0.00,,,0.00,VWS V14.01,2013-03-12 09:55:00,
2013-03-12 05:59:00,67.8,62.8,29.89,SSE,163,0.0,0.0,84,0.00,,,0.00,VWS V14.01,2013-03-12 09:59:00,
2013-03-12 06:00:00,68.0,63.0,29.89,South,176,0.0,6.5,84,0.00,,,0.00,VWS V14.01,2013-03-12 10:00:00,
2013-03-12 06:05:00,68.0,62.9,29.90,South,188,3.0,5.4,84,0.00,,,0.00,VWS V14.01,2013-03-12 10:05:00,
2013-03-12 06:15:00,68.1,63.2,29.89,SSE,149,0.0,4.2,84,0.00,,,0.00,VWS V14.01,2013-03-12 10:15:00,
2013-03-12 06:20:00,68.0,63.3,29.90,South,183,0.0,0.0,85,0.00,,,0.00,VWS V14.01,2013-03-12 10:20:00,
2013-03-12 06:25:00,67.7,63.3,29.90,SSE,155,0.0,0.0,86,0.00,,,0.00,VWS V14.01,2013-03-12 10:25:00,
2013-03-12 06:30:00,67.8,63.5,29.90,SSE,155,0.0,0.0,86,0.00,,,0.00,VWS V14.01,2013-03-12 10:30:00,
2013-03-12 06:35:00,67.3,62.9,29.90,SSE,155,0.0,0.0,86,0.00,,,0.00,VWS V14.01,2013-03-12 10:35:00,
2013-03-12 06:40:00,67.3,62.9,29.90,SSE,155,0.0,0.0,86,0.00,,,0.00,VWS V14.01,2013-03-12 10:40:00,
2013-03-12 06:45:00,67.4,63.0,29.91,SSE,155,0.0,0.0,86,0.00,,,0.00,VWS V14.01,2013-03-12 10:45:00,
2013-03-12 06:50:00,67.8,63.4,29.91,SSE,155,0.0,0.0,86,0.00,,,0.00,VWS V14.01,2013-03-12 10:50:00,
2013-03-12 06:55:00,67.5,63.0,29.91,SSE,155,0.0,0.0,86,0.00,,,0.00,VWS V14.01,2013-03-12 10:55:00,
2013-03-12 07:00:00,67.7,63.2,29.92,SSE,155,0.0,0.0,85,0.00,,,0.00,VWS V14.01,2013-03-12 11:00:00,
2013-03-12 07:05:00,67.5,62.9,29.92,SSE,155,0.0,0.0,85,0.00,,,0.00,VWS V14.01,2013-03-12 11:05:00,
2013-03-12 07:10:00,67.5,63.0,29.92,SSE,155,0.0,0.0,85,0.00,,,0.00,VWS V14.01,2013-03-12 11:10:00,
2013-03-12 07:15:00,67.7,63.4,29.91,SSE,155,0.0,0.0,86,0.00,,,0.00,VWS V14.01,2013-03-12 11:15:00,
2013-03-12 07:20:00,67.1,63.1,29.92,SSE,155,0.0,0.0,87,0.01,,,0.01,VWS V14.01,2013-03-12 11:20:00,
2013-03-12 07:25:00,67.2,63.5,29.92,SSE,155,0.0,0.0,88,0.01,,,0.01,VWS V14.01,2013-03-12 11:25:00,
2013-03-12 07:30:00,66.7,63.2,29.92,SSE,155,0.0,0.0,89,0.02,,,0.02,VWS V14.01,2013-03-12 11:30:00,
2013-03-12 07:35:00,66.6,63.2,29.92,SSE,155,0.0,0.0,89,0.02,,,0.02,VWS V14.01,2013-03-12 11:35:00,
2013-03-12 07:40:00,66.6,63.4,29.92,SSE,155,0.0,0.0,90,0.02,,,0.02,VWS V14.01,2013-03-12 11:40:00,
2013-03-12 07:45:00,65.9,62.9,29.92,SSE,155,0.0,0.0,90,0.02,,,0.02,VWS V14.01,2013-03-12 11:45:00,
2013-03-12 07:50:00,66.0,63.0,29.92,SSE,155,0.0,0.0,90,0.03,,,0.03,VWS V14.01,2013-03-12 11:50:00,
2013-03-12 07:55:00,66.0,63.1,29.92,SSE,155,0.0,0.0,90,0.03,,,0.03,VWS V14.01,2013-03-12 11:55:00,
2013-03-12 08:00:00,65.9,63.0,29.92,SSE,155,0.0,0.0,90,0.03,,,0.03,VWS V14.01,2013-03-12 12:00:00,
2013-03-12 08:05:00,65.9,63.1,29.92,SSE,155,0.0,0.0,91,0.03,,,0.03,VWS V14.01,2013-03-12 12:05:00,
2013-03-12 08:10:00,65.9,63.1,29.92,SSE,155,0.0,0.0,91,0.03,,,0.03,VWS V14.01,2013-03-12 12:10:00,
2013-03-12 08:15:00,66.1,63.3,29.92,SSE,155,0.0,0.0,91,0.03,,,0.03,VWS V14.01,2013-03-12 12:15:00,
2013-03-12 08:20:00,66.2,63.4,29.92,SSE,155,0.0,0.0,91,0.03,,,0.03,VWS V14.01,2013-03-12 12:20:00,
2013-03-12 08:25:00,65.7,62.9,29.93,SSE,155,0.0,0.0,91,0.02,,,0.03,VWS V14.01,2013-03-12 12:25:00,
2013-03-12 08:30:00,66.0,63.2,29.92,SSE,155,0.0,0.0,91,0.02,,,0.03,VWS V14.01,2013-03-12 12:30:00,
2013-03-12 08:35:00,65.4,62.7,29.93,SSE,155,0.0,0.0,91,0.01,,,0.03,VWS V14.01,2013-03-12 12:35:00,
2013-03-12 08:40:00,66.0,63.3,29.93,SSE,155,0.0,0.0,91,0.01,,,0.03,VWS V14.01,2013-03-12 12:40:00,
2013-03-12 08:45:00,65.9,63.1,29.93,SSE,155,0.0,0.0,91,0.01,,,0.03,VWS V14.01,2013-03-12 12:45:00,
2013-03-12 08:50:00,65.9,63.1,29.93,SSE,155,0.0,0.0,91,0.01,,,0.03,VWS V14.01,2013-03-12 12:50:00,
2013-03-12 08:55:00,65.7,62.9,29.93,SSE,155,0.0,0.0,91,0.00,,,0.03,VWS V14.01,2013-03-12 12:55:00,
2013-03-12 09:00:00,65.8,63.1,29.94,SSE,155,0.0,0.0,91,0.00,,,0.03,VWS V14.01,2013-03-12 13:00:00,
2013-03-12 09:05:00,65.5,62.8,29.94,SSE,155,0.0,0.0,91,0.00,,,0.03,VWS V14.01,2013-03-12 13:05:00,
2013-03-12 09:10:00,66.0,63.2,29.94,SSE,155,0.0,0.0,91,0.00,,,0.03,VWS V14.01,2013-03-12 13:10:00,
2013-03-12 09:14:00,65.8,63.0,29.95,SSE,155,0.0,0.0,91,0.00,,,0.03,VWS V14.01,2013-03-12 13:14:00,
2013-03-12 09:15:00,66.0,63.2,29.94,SSE,155,0.0,0.0,91,0.00,,,0.03,VWS V14.01,2013-03-12 13:15:00,
2013-03-12 09:19:00,66.1,63.4,29.95,SSE,155,0.0,0.0,91,0.01,,,0.04,VWS V14.01,2013-03-12 13:19:00,
2013-03-12 09:20:00,65.6,62.9,29.95,SSE,155,0.0,0.0,91,0.01,,,0.04,VWS V14.01,2013-03-12 13:20:00,
2013-03-12 09:24:00,65.7,63.0,29.95,SSE,155,0.0,0.0,91,0.01,,,0.04,VWS V14.01,2013-03-12 13:24:00,
2013-03-12 09:29:00,65.8,63.1,29.95,SSE,155,0.0,0.0,91,0.01,,,0.04,VWS V14.01,2013-03-12 13:29:00,
2013-03-12 09:34:00,65.6,63.1,29.95,SSE,155,0.0,0.0,92,0.02,,,0.05,VWS V14.01,2013-03-12 13:34:00,
2013-03-12 09:39:00,65.6,63.1,29.95,SSE,155,0.0,0.0,92,0.03,,,0.06,VWS V14.01,2013-03-12 13:39:00,
2013-03-12 09:44:00,65.4,63.0,29.95,SSE,155,0.0,0.0,92,0.04,,,0.07,VWS V14.01,2013-03-12 13:44:00,
2013-03-12 09:49:00,65.2,62.8,29.95,SSE,155,0.0,0.0,92,0.05,,,0.08,VWS V14.01,2013-03-12 13:49:00,
2013-03-12 09:54:00,65.4,63.1,29.95,SSE,155,0.0,0.0,92,0.05,,,0.08,VWS V14.01,2013-03-12 13:54:00,
2013-03-12 09:59:00,65.2,62.9,29.95,SSE,155,0.0,0.0,92,0.05,,,0.08,VWS V14.01,2013-03-12 13:59:00,
2013-03-12 10:04:00,65.5,63.2,29.95,SSE,155,0.0,0.0,92,0.05,,,0.08,VWS V14.01,2013-03-12 14:04:00,
2013-03-12 10:09:00,65.5,63.2,29.95,SSE,155,0.0,0.0,92,0.05,,,0.08,VWS V14.01,2013-03-12 14:09:00,
2013-03-12 10:14:00,65.3,63.1,29.95,SSE,155,0.0,0.0,92,0.05,,,0.08,VWS V14.01,2013-03-12 14:14:00,
2013-03-12 10:19:00,65.4,63.2,29.95,SSE,155,0.0,0.0,93,0.05,,,0.08,VWS V14.01,2013-03-12 14:19:00,
2013-03-12 10:24:00,65.2,63.0,29.95,SSE,155,0.0,0.0,93,0.05,,,0.09,VWS V14.01,2013-03-12 14:24:00,
2013-03-12 10:29:00,65.2,63.1,29.95,SSE,155,0.0,0.0,93,0.06,,,0.10,VWS V14.01,2013-03-12 14:29:00,
2013-03-12 10:34:00,65.2,63.1,29.95,SSE,155,0.0,0.0,93,0.07,,,0.11,VWS V14.01,2013-03-12 14:34:00,
2013-03-12 10:39:00,65.2,63.2,29.95,SSE,155,0.0,0.0,93,0.07,,,0.12,VWS V14.01,2013-03-12 14:39:00,
2013-03-12 10:44:00,65.4,63.4,29.95,SSE,155,0.0,0.0,93,0.06,,,0.12,VWS V14.01,2013-03-12 14:44:00,
2013-03-12 10:49:00,65.3,63.3,29.95,SSE,155,0.0,0.0,93,0.06,,,0.13,VWS V14.01,2013-03-12 14:49:00,
2013-03-12 10:54:00,65.6,63.6,29.95,SSE,155,0.0,0.0,93,0.05,,,0.13,VWS V14.01,2013-03-12 14:54:00,
2013-03-12 10:59:00,65.6,63.6,29.95,SSE,155,0.0,0.0,93,0.06,,,0.14,VWS V14.01,2013-03-12 14:59:00,
2013-03-12 11:04:00,65.6,63.6,29.95,SSE,155,0.0,0.0,93,0.06,,,0.14,VWS V14.01,2013-03-12 15:04:00,
2013-03-12 11:09:00,65.7,63.7,29.95,SSE,155,0.0,0.0,93,0.07,,,0.15,VWS V14.01,2013-03-12 15:09:00,
2013-03-12 11:14:00,65.9,63.8,29.95,SSE,155,0.0,0.0,93,0.07,,,0.15,VWS V14.01,2013-03-12 15:14:00,
2013-03-12 11:19:00,66.1,64.1,29.95,SSE,155,0.0,0.0,93,0.07,,,0.15,VWS V14.01,2013-03-12 15:19:00,
2013-03-12 11:24:00,66.1,64.1,29.95,SSE,155,0.0,0.0,93,0.07,,,0.15,VWS V14.01,2013-03-12 15:24:00,
2013-03-12 11:29:00,66.0,64.0,29.96,SSE,155,0.0,0.0,93,0.06,,,0.15,VWS V14.01,2013-03-12 15:29:00,
2013-03-12 11:34:00,66.3,64.2,29.95,SSE,155,0.0,0.0,93,0.05,,,0.15,VWS V14.01,2013-03-12 15:34:00,
2013-03-12 11:39:00,66.1,64.1,29.95,SSE,155,0.0,0.0,93,0.04,,,0.15,VWS V14.01,2013-03-12 15:39:00,
2013-03-12 11:44:00,66.5,64.4,29.95,SSE,155,0.0,0.0,93,0.03,,,0.15,VWS V14.01,2013-03-12 15:44:00,
2013-03-12 11:49:00,66.7,64.6,29.95,SSE,155,0.0,0.0,93,0.03,,,0.15,VWS V14.01,2013-03-12 15:49:00,
2013-03-12 11:54:00,67.1,65.0,29.96,SSE,155,0.0,0.0,93,0.02,,,0.15,VWS V14.01,2013-03-12 15:54:00,
2013-03-12 11:59:00,67.0,64.9,29.95,SSE,155,0.0,0.0,93,0.02,,,0.15,VWS V14.01,2013-03-12 15:59:00,
2013-03-12 12:04:00,67.0,64.8,29.95,SSE,155,0.0,0.0,93,0.01,,,0.15,VWS V14.01,2013-03-12 16:04:00,
2013-03-12 12:09:00,67.3,65.1,29.95,SSE,155,0.0,0.0,93,0.01,,,0.15,VWS V14.01,2013-03-12 16:09:00,
2013-03-12 12:14:00,67.3,65.2,29.95,SSE,155,0.0,0.0,93,0.00,,,0.15,VWS V14.01,2013-03-12 16:14:00,
2013-03-12 12:19:00,67.7,65.5,29.95,SSE,155,0.0,0.0,93,0.00,,,0.15,VWS V14.01,2013-03-12 16:19:00,
2013-03-12 12:24:00,67.8,65.6,29.95,SSE,155,0.0,0.0,93,0.00,,,0.15,VWS V14.01,2013-03-12 16:24:00,
2013-03-12 12:29:00,67.8,65.6,29.95,SSE,155,0.0,0.0,92,0.00,,,0.15,VWS V14.01,2013-03-12 16:29:00,
2013-03-12 12:34:00,67.9,65.6,29.95,SSE,155,0.0,0.0,92,0.00,,,0.15,VWS V14.01,2013-03-12 16:34:00,
2013-03-12 12:39:00,67.7,65.4,29.95,SSE,155,0.0,0.0,92,0.00,,,0.15,VWS V14.01,2013-03-12 16:39:00,
2013-03-12 12:44:00,68.0,65.7,29.95,SSE,155,0.0,0.0,92,0.00,,,0.15,VWS V14.01,2013-03-12 16:44:00,
2013-03-12 12:49:00,68.3,66.0,29.95,SSE,155,0.0,0.0,92,0.00,,,0.15,VWS V14.01,2013-03-12 16:49:00,
2013-03-12 12:54:00,68.3,65.9,29.95,SSE,155,0.0,0.0,92,0.00,,,0.15,VWS V14.01,2013-03-12 16:54:00,
2013-03-12 12:59:00,68.3,65.9,29.95,SSE,155,0.0,0.0,92,0.00,,,0.15,VWS V14.01,2013-03-12 16:59:00,
2013-03-12 13:04:00,68.4,66.0,29.95,SSE,155,0.0,0.0,92,0.00,,,0.15,VWS V14.01,2013-03-12 17:04:00,
2013-03-12 13:09:00,68.6,66.2,29.95,SSE,155,0.0,0.0,92,0.00,,,0.15,VWS V14.01,2013-03-12 17:09:00,
2013-03-12 13:14:00,68.5,66.1,29.94,SSE,155,0.0,0.0,92,0.00,,,0.15,VWS V14.01,2013-03-12 17:14:00,
2013-03-12 13:19:00,68.8,66.3,29.94,SSE,155,0.0,0.0,92,0.00,,,0.15,VWS V14.01,2013-03-12 17:19:00,
2013-03-12 13:24:00,68.8,66.3,29.94,SSE,155,0.0,0.0,92,0.00,,,0.15,VWS V14.01,2013-03-12 17:24:00,
2013-03-12 13:29:00,68.8,66.3,29.94,SSE,155,0.0,0.0,92,0.00,,,0.15,VWS V14.01,2013-03-12 17:29:00,
2013-03-12 13:34:00,69.1,66.6,29.94,SSE,155,0.0,0.0,92,0.00,,,0.15,VWS V14.01,2013-03-12 17:34:00,
2013-03-12 13:39:00,69.0,66.5,29.94,SSE,155,0.0,0.0,92,0.00,,,0.15,VWS V14.01,2013-03-12 17:39:00,
2013-03-12 13:44:00,69.2,66.7,29.94,SSE,155,0.0,0.0,92,0.00,,,0.15,VWS V14.01,2013-03-12 17:44:00,
2013-03-12 13:49:00,69.3,66.8,29.93,SSE,155,0.0,0.0,92,0.00,,,0.15,VWS V14.01,2013-03-12 17:49:00,
2013-03-12 13:54:00,69.2,66.8,29.93,SSE,155,0.0,0.0,92,0.00,,,0.15,VWS V14.01,2013-03-12 17:54:00,
2013-03-12 13:59:00,69.3,66.9,29.93,SSE,155,0.0,0.0,92,0.01,,,0.16,VWS V14.01,2013-03-12 17:59:00,
2013-03-12 14:04:00,69.2,66.8,29.93,SSE,155,0.0,0.0,92,0.01,,,0.16,VWS V14.01,2013-03-12 18:04:00,
2013-03-12 14:09:00,69.1,66.8,29.93,SSE,155,0.0,0.0,92,0.01,,,0.16,VWS V14.01,2013-03-12 18:09:00,
2013-03-12 14:14:00,69.4,67.0,29.93,SSE,155,0.0,0.0,92,0.01,,,0.16,VWS V14.01,2013-03-12 18:14:00,
2013-03-12 14:19:00,69.4,67.1,29.92,SSE,155,0.0,0.0,92,0.01,,,0.16,VWS V14.01,2013-03-12 18:19:00,
2013-03-12 14:24:00,69.4,67.1,29.92,SSE,155,0.0,0.0,92,0.01,,,0.16,VWS V14.01,2013-03-12 18:24:00,
2013-03-12 14:29:00,69.4,67.1,29.92,SSE,155,0.0,0.0,92,0.01,,,0.16,VWS V14.01,2013-03-12 18:29:00,
2013-03-12 14:34:00,69.5,67.2,29.92,SSE,155,0.0,0.0,92,0.01,,,0.16,VWS V14.01,2013-03-12 18:34:00,
2013-03-12 14:39:00,69.4,67.1,29.92,SSE,155,0.0,0.0,92,0.01,,,0.16,VWS V14.01,2013-03-12 18:39:00,
2013-03-12 14:44:00,69.5,67.2,29.92,SSE,155,0.0,0.0,92,0.01,,,0.16,VWS V14.01,2013-03-12 18:44:00,
2013-03-12 14:49:00,69.4,67.1,29.92,West,276,0.0,5.4,92,0.01,,,0.16,VWS V14.01,2013-03-12 18:49:00,
2013-03-12 14:54:00,69.1,66.8,29.92,SW,224,0.0,0.0,92,0.01,,,0.16,VWS V14.01,2013-03-12 18:54:00,
2013-03-12 14:59:00,68.9,66.4,29.93,SW,224,0.0,0.0,92,0.01,,,0.16,VWS V14.01,2013-03-12 18:59:00,
2013-03-12 15:04:00,68.4,65.8,29.93,West,266,5.0,7.0,91,0.00,,,0.16,VWS V14.01,2013-03-12 19:04:00,
2013-03-12 15:09:00,68.4,65.8,29.92,WNW,287,0.0,4.5,91,0.00,,,0.16,VWS V14.01,2013-03-12 19:09:00,
2013-03-12 15:14:00,68.2,65.6,29.92,WSW,252,0.0,4.5,92,0.00,,,0.16,VWS V14.01,2013-03-12 19:14:00,
2013-03-12 15:19:00,68.3,65.7,29.92,WNW,288,0.0,0.0,91,0.00,,,0.16,VWS V14.01,2013-03-12 19:19:00,
2013-03-12 15:24:00,68.3,65.7,29.92,WNW,288,0.0,2.4,91,0.00,,,0.16,VWS V14.01,2013-03-12 19:24:00,
2013-03-12 15:29:00,68.5,65.8,29.92,WNW,288,0.0,0.0,91,0.00,,,0.16,VWS V14.01,2013-03-12 19:29:00,
2013-03-12 15:34:00,68.5,65.8,29.92,WNW,302,0.0,6.0,91,0.00,,,0.16,VWS V14.01,2013-03-12 19:34:00,
2013-03-12 15:39:00,68.5,65.8,29.92,WNW,302,0.0,0.0,91,0.00,,,0.16,VWS V14.01,2013-03-12 19:39:00,
2013-03-12 15:44:00,68.3,65.6,29.92,WNW,302,0.0,0.0,91,0.00,,,0.16,VWS V14.01,2013-03-12 19:44:00,
2013-03-12 15:49:00,68.5,65.7,29.92,WNW,302,0.0,0.0,91,0.00,,,0.16,VWS V14.01,2013-03-12 19:49:00,
2013-03-12 15:54:00,68.9,66.2,29.92,WNW,302,0.0,0.0,91,0.00,,,0.16,VWS V14.01,2013-03-12 19:54:00,
2013-03-12 15:59:00,69.2,66.3,29.92,WNW,302,0.0,0.0,91,0.00,,,0.16,VWS V14.01,2013-03-12 19:59:00,
2013-03-12 16:04:00,69.6,66.6,29.91,WNW,302,0.0,0.0,90,0.00,,,0.16,VWS V14.01,2013-03-12 20:04:00,
2013-03-12 16:09:00,70.1,66.9,29.91,WNW,302,0.0,0.0,90,0.00,,,0.16,VWS V14.01,2013-03-12 20:09:00,
2013-03-12 16:14:00,70.4,66.8,29.91,WNW,302,0.0,0.0,88,0.00,,,0.16,VWS V14.01,2013-03-12 20:14:00,
2013-03-12 16:19:00,70.9,67.1,29.90,SSE,155,0.0,3.1,88,0.00,,,0.16,VWS V14.01,2013-03-12 20:19:00,
2013-03-12 16:24:00,71.5,67.7,29.90,SSE,155,0.0,0.0,88,0.00,,,0.16,VWS V14.01,2013-03-12 20:24:00,
2013-03-12 16:29:00,71.9,67.3,29.90,SSW,200,0.0,2.7,86,0.00,,,0.16,VWS V14.01,2013-03-12 20:29:00,
2013-03-12 16:34:00,71.9,66.9,29.90,SSW,200,0.0,0.0,84,0.00,,,0.16,VWS V14.01,2013-03-12 20:34:00,
2013-03-12 16:39:00,71.9,67.1,29.91,South,173,0.0,0.0,85,0.00,,,0.16,VWS V14.01,2013-03-12 20:39:00,
2013-03-12 16:44:00,72.1,67.1,29.91,South,173,0.0,2.9,84,0.00,,,0.16,VWS V14.01,2013-03-12 20:44:00,
2013-03-12 16:49:00,71.8,66.9,29.91,South,173,0.0,0.0,85,0.00,,,0.16,VWS V14.01,2013-03-12 20:49:00,
2013-03-12 16:54:00,71.9,66.9,29.91,South,173,0.0,0.0,84,0.00,,,0.16,VWS V14.01,2013-03-12 20:54:00,
2013-03-12 16:59:00,72.0,66.9,29.90,South,173,0.0,0.0,84,0.00,,,0.16,VWS V14.01,2013-03-12 20:59:00,
2013-03-12 17:04:00,72.2,67.0,29.90,South,173,0.0,0.0,84,0.00,,,0.16,VWS V14.01,2013-03-12 21:04:00,
2013-03-12 17:09:00,72.1,66.9,29.91,WNW,301,3.0,3.0,84,0.00,,,0.16,VWS V14.01,2013-03-12 21:09:00,
2013-03-12 17:14:00,72.0,66.5,29.91,West,277,0.0,3.3,83,0.00,,,0.16,VWS V14.01,2013-03-12 21:14:00,
2013-03-12 17:19:00,72.0,66.6,29.90,West,277,0.0,0.0,83,0.00,,,0.16,VWS V14.01,2013-03-12 21:19:00,
2013-03-12 17:24:00,71.8,66.3,29.91,West,277,0.0,0.0,83,0.00,,,0.16,VWS V14.01,2013-03-12 21:24:00,
2013-03-12 17:29:00,72.0,66.7,29.91,SSW,205,0.0,6.9,84,0.00,,,0.16,VWS V14.01,2013-03-12 21:29:00,
2013-03-12 17:34:00,71.7,66.3,29.91,NNE,28,0.0,0.0,83,0.00,,,0.16,VWS V14.01,2013-03-12 21:34:00,
2013-03-12 17:39:00,71.9,66.4,29.91,NNE,28,0.0,0.0,83,0.00,,,0.16,VWS V14.01,2013-03-12 21:39:00,
2013-03-12 17:44:00,71.8,66.0,29.91,NNW,342,3.2,9.3,82,0.00,,,0.16,VWS V14.01,2013-03-12 21:44:00,
2013-03-12 17:49:00,71.8,66.1,29.91,WSW,239,3.3,5.2,82,0.00,,,0.16,VWS V14.01,2013-03-12 21:49:00,
2013-03-12 17:54:00,71.8,66.0,29.92,NNW,346,4.8,8.0,82,0.00,,,0.16,VWS V14.01,2013-03-12 21:54:00,
2013-03-12 17:59:00,71.9,66.3,29.91,West,278,4.6,8.0,82,0.00,,,0.16,VWS V14.01,2013-03-12 21:59:00,
2013-03-12 18:04:00,71.5,65.7,29.92,NNE,25,0.0,4.6,82,0.00,,,0.16,VWS V14.01,2013-03-12 22:04:00,
2013-03-12 18:09:00,71.3,65.5,29.92,WNW,302,0.0,3.2,82,0.00,,,0.16,VWS V14.01,2013-03-12 22:09:00,
2013-03-12 18:14:00,71.0,65.0,29.93,West,270,0.0,2.5,81,0.00,,,0.16,VWS V14.01,2013-03-12 22:14:00,
2013-03-12 18:19:00,70.6,64.7,29.93,West,262,2.9,9.3,82,0.00,,,0.16,VWS V14.01,2013-03-12 22:19:00,
2013-03-12 18:24:00,70.2,64.5,29.92,NW,316,0.0,7.0,82,0.00,,,0.16,VWS V14.01,2013-03-12 22:24:00,
2013-03-12 18:29:00,69.8,64.3,29.93,WSW,252,0.0,0.0,83,0.00,,,0.16,VWS V14.01,2013-03-12 22:29:00,
2013-03-12 18:34:00,69.8,64.1,29.93,NW,318,0.0,7.3,82,0.00,,,0.16,VWS V14.01,2013-03-12 22:34:00,
2013-03-12 18:39:00,69.3,63.4,29.93,NW,311,0.0,7.6,82,0.00,,,0.16,VWS V14.01,2013-03-12 22:39:00,
2013-03-12 18:44:00,69.0,63.1,29.93,West,276,6.1,7.2,82,0.00,,,0.16,VWS V14.01,2013-03-12 22:44:00,
2013-03-12 18:49:00,68.5,62.8,29.93,SSW,208,2.2,7.1,82,0.00,,,0.16,VWS V14.01,2013-03-12 22:49:00,
2013-03-12 18:54:00,68.3,62.8,29.93,West,270,0.0,0.0,82,0.00,,,0.16,VWS V14.01,2013-03-12 22:54:00,
2013-03-12 18:59:00,67.9,62.4,29.93,North,349,0.0,0.0,83,0.00,,,0.16,VWS V14.01,2013-03-12 22:59:00,
2013-03-12 19:04:00,68.0,62.3,29.93,North,349,0.0,0.0,82,0.00,,,0.16,VWS V14.01,2013-03-12 23:04:00,
2013-03-12 19:09:00,67.7,62.0,29.93,North,349,0.0,0.0,82,0.00,,,0.16,VWS V14.01,2013-03-12 23:09:00,
2013-03-12 19:14:00,67.7,62.0,29.94,WSW,253,0.0,0.0,82,0.00,,,0.16,VWS V14.01,2013-03-12 23:14:00,
2013-03-12 19:19:00,67.0,61.5,29.94,WSW,253,0.0,0.0,82,0.00,,,0.16,VWS V14.01,2013-03-12 23:19:00,
2013-03-12 19:24:00,67.1,61.6,29.95,North,359,0.0,4.4,83,0.00,,,0.16,VWS V14.01,2013-03-12 23:24:00,
2013-03-12 19:29:00,66.7,61.2,29.95,North,359,0.0,0.0,83,0.00,,,0.16,VWS V14.01,2013-03-12 23:29:00,
2013-03-12 19:34:00,66.1,60.9,29.94,WNW,291,4.8,8.0,83,0.00,,,0.16,VWS V14.01,2013-03-12 23:34:00,
2013-03-12 19:39:00,65.9,60.8,29.95,WNW,294,0.0,0.0,84,0.00,,,0.16,VWS V14.01,2013-03-12 23:39:00,
2013-03-12 19:44:00,66.0,60.9,29.95,WNW,294,0.0,0.0,84,0.00,,,0.16,VWS V14.01,2013-03-12 23:44:00,
2013-03-12 19:49:00,65.8,60.9,29.95,WNW,294,0.0,3.0,84,0.00,,,0.16,VWS V14.01,2013-03-12 23:49:00,
2013-03-12 19:54:00,65.8,60.9,29.95,WNW,294,0.0,3.4,84,0.00,,,0.16,VWS V14.01,2013-03-12 23:54:00,
2013-03-12 19:59:00,65.6,60.8,29.96,WNW,294,0.0,0.0,84,0.00,,,0.16,VWS V14.01,2013-03-12 23:59:00,
2013-03-12 20:04:00,65.4,60.7,29.96,WNW,294,0.0,0.0,85,0.00,,,0.16,VWS V14.01,2013-03-13 00:04:00,
2013-03-12 20:09:00,65.4,60.8,29.96,WNW,294,0.0,0.0,85,0.00,,,0.16,VWS V14.01,2013-03-13 00:09:00,
2013-03-12 20:14:00,65.3,60.7,29.96,WNW,294,0.0,0.0,85,0.00,,,0.16,VWS V14.01,2013-03-13 00:14:00,
2013-03-12 20:19:00,65.4,60.8,29.97,WNW,294,0.0,0.0,85,0.00,,,0.16,VWS V14.01,2013-03-13 00:19:00,
2013-03-12 20:24:00,65.3,60.7,29.97,West,263,0.0,5.7,85,0.00,,,0.16,VWS V14.01,2013-03-13 00:24:00,
2013-03-12 20:29:00,65.0,60.5,29.97,West,263,0.0,2.4,85,0.00,,,0.16,VWS V14.01,2013-03-13 00:29:00,
2013-03-12 20:34:00,65.3,60.8,29.97,SW,236,0.0,7.3,85,0.00,,,0.16,VWS V14.01,2013-03-13 00:34:00,
2013-03-12 20:39:00,64.7,60.0,29.98,WNW,295,0.0,1.4,85,0.00,,,0.16,VWS V14.01,2013-03-13 00:39:00,
2013-03-12 20:44:00,64.6,59.9,29.98,NW,308,7.0,9.5,85,0.00,,,0.16,VWS V14.01,2013-03-13 00:44:00,
2013-03-12 20:49:00,64.4,59.8,29.98,WSW,239,5.2,7.8,85,0.00,,,0.16,VWS V14.01,2013-03-13 00:49:00,
2013-03-12 20:54:00,64.0,59.5,29.98,NW,305,0.0,0.0,85,0.00,,,0.16,VWS V14.01,2013-03-13 00:54:00,
2013-03-12 20:59:00,63.9,59.5,29.99,NW,319,0.0,0.0,86,0.00,,,0.16,VWS V14.01,2013-03-13 00:59:00,
2013-03-12 21:04:00,64.0,59.7,29.99,WNW,292,0.0,0.0,86,0.00,,,0.16,VWS V14.01,2013-03-13 01:04:00,
2013-03-12 21:09:00,63.8,59.5,29.99,WNW,302,0.0,4.1,86,0.00,,,0.16,VWS V14.01,2013-03-13 01:09:00,
2013-03-12 21:14:00,63.9,59.6,29.99,WSW,246,0.0,4.5,86,0.00,,,0.16,VWS V14.01,2013-03-13 01:14:00,
2013-03-12 21:19:00,64.0,59.8,29.99,WSW,246,0.0,0.0,86,0.00,,,0.16,VWS V14.01,2013-03-13 01:19:00,
2013-03-12 21:24:00,63.3,59.1,30.00,West,269,0.0,0.0,86,0.00,,,0.16,VWS V14.01,2013-03-13 01:24:00,
2013-03-12 21:29:00,63.5,59.3,30.00,West,269,0.0,0.0,86,0.00,,,0.16,VWS V14.01,2013-03-13 01:29:00,
2013-03-12 21:34:00,62.9,59.0,30.00,West,277,0.0,0.0,87,0.00,,,0.16,VWS V14.01,2013-03-13 01:34:00,
2013-03-12 21:39:00,62.6,58.8,30.01,NNW,332,0.0,0.0,87,0.00,,,0.16,VWS V14.01,2013-03-13 01:39:00,
2013-03-12 21:44:00,62.6,58.9,30.01,WNW,287,0.0,0.0,88,0.00,,,0.16,VWS V14.01,2013-03-13 01:44:00,
2013-03-12 21:49:00,62.0,58.4,30.01,WNW,290,0.0,0.0,88,0.00,,,0.16,VWS V14.01,2013-03-13 01:49:00,
2013-03-12 21:54:00,61.9,58.6,30.01,West,281,0.0,2.8,89,0.00,,,0.16,VWS V14.01,2013-03-13 01:54:00,
2013-03-12 21:59:00,62.1,58.9,30.01,WNW,287,0.0,0.0,89,0.00,,,0.16,VWS V14.01,2013-03-13 01:59:00,
2013-03-12 22:04:00,61.9,58.8,30.02,WNW,283,0.0,7.8,90,0.00,,,0.16,VWS V14.01,2013-03-13 02:04:00,
2013-03-12 22:09:00,61.6,58.6,30.02,WNW,287,4.9,7.8,90,0.00,,,0.16,VWS V14.01,2013-03-13 02:09:00,
2013-03-12 22:14:00,61.5,58.5,30.02,West,273,0.0,2.5,90,0.00,,,0.16,VWS V14.01,2013-03-13 02:14:00,
2013-03-12 22:19:00,61.2,58.3,30.02,WNW,285,0.0,0.0,90,0.00,,,0.16,VWS V14.01,2013-03-13 02:19:00,
2013-03-12 22:24:00,61.6,58.7,30.02,WNW,285,0.0,0.0,90,0.00,,,0.16,VWS V14.01,2013-03-13 02:24:00,
2013-03-12 22:29:00,61.3,58.4,30.02,WNW,285,0.0,0.0,90,0.00,,,0.16,VWS V14.01,2013-03-13 02:29:00,
2013-03-12 22:34:00,61.4,58.5,30.02,WNW,285,0.0,0.0,90,0.00,,,0.16,VWS V14.01,2013-03-13 02:34:00,
2013-03-12 22:39:00,61.1,58.2,30.02,WNW,285,0.0,0.0,90,0.00,,,0.16,VWS V14.01,2013-03-13 02:39:00,
2013-03-12 22:44:00,61.2,58.3,30.02,WNW,285,0.0,0.0,90,0.00,,,0.16,VWS V14.01,2013-03-13 02:44:00,
2013-03-12 22:49:00,61.1,58.2,30.02,WNW,285,0.0,0.0,90,0.00,,,0.16,VWS V14.01,2013-03-13 02:49:00,
2013-03-12 22:54:00,61.2,58.4,30.02,WNW,285,0.0,0.0,90,0.00,,,0.16,VWS V14.01,2013-03-13 02:54:00,
2013-03-12 22:59:00,60.7,57.9,30.03,WNW,285,0.0,0.0,90,0.00,,,0.16,VWS V14.01,2013-03-13 02:59:00,
2013-03-12 23:04:00,61.1,58.3,30.03,West,277,0.0,4.7,90,0.00,,,0.16,VWS V14.01,2013-03-13 03:04:00,
2013-03-12 23:09:00,60.6,57.8,30.03,West,277,0.0,0.0,90,0.00,,,0.16,VWS V14.01,2013-03-13 03:09:00,
2013-03-12 23:14:00,60.9,58.1,30.03,West,277,0.0,0.0,90,0.00,,,0.16,VWS V14.01,2013-03-13 03:14:00,
2013-03-12 23:19:00,60.8,58.0,30.03,West,277,0.0,0.0,91,0.00,,,0.16,VWS V14.01,2013-03-13 03:19:00,
2013-03-12 23:24:00,60.8,58.0,30.03,West,277,0.0,0.0,91,0.00,,,0.16,VWS V14.01,2013-03-13 03:24:00,
2013-03-12 23:29:00,60.2,57.5,30.04,West,277,0.0,0.0,91,0.00,,,0.16,VWS V14.01,2013-03-13 03:29:00,
2013-03-12 23:34:00,60.4,57.7,30.04,West,277,0.0,0.0,91,0.00,,,0.16,VWS V14.01,2013-03-13 03:34:00,
2013-03-12 23:39:00,60.3,57.6,30.03,West,277,0.0,0.0,91,0.00,,,0.16,VWS V14.01,2013-03-13 03:39:00,
2013-03-12 23:44:00,60.0,57.3,30.03,West,277,0.0,0.0,91,0.00,,,0.16,VWS V14.01,2013-03-13 03:44:00,
2013-03-12 23:49:00,60.0,57.3,30.04,WNW,300,3.1,4.2,91,0.00,,,0.16,VWS V14.01,2013-03-13 03:49:00,
2013-03-12 23:54:00,60.0,57.4,30.04,NW,305,0.0,3.5,91,0.00,,,0.16,VWS V14.01,2013-03-13 03:54:00,
2013-03-12 23:59:00,59.7,57.1,30.05,West,276,0.0,5.5,91,0.00,,,0.16,VWS V14.01,2013-03-13 03:59:00,